Time;durP1;ratioP1;P1;durP2;ratioP2;P2;SDS_P1;SDS_P2;PMS_P1;PMS_P2;Temp;Humidity;BMP_temperature;BMP_pressure;BME280_temperature;BME280_humidity;BME280_pressure;Samples;Min_cycle;Max_cycle;Signal;HPM_P1;HPM_P2
2023/09/11 00:00:49;;;;;;;11.48;5.75;;;19.30;99.90;;;;;;5081699;28;20473;-78
2023/09/11 00:03:16;;;;;;;12.32;6.18;;;19.30;99.90;;;;;;5090192;28;20505;-79
2023/09/11 00:05:44;;;;;;;11.82;6.05;;;19.20;99.90;;;;;;5075152;28;20041;-79
2023/09/11 00:08:28;;;;;;;7.57;5.32;;;19.20;99.90;;;;;;5081312;28;20063;-79
2023/09/11 00:10:55;;;;;;;9.73;5.50;;;19.20;99.90;;;;;;5078395;28;20048;-79
2023/09/11 00:13:22;;;;;;;12.90;7.05;;;19.20;99.90;;;;;;5076362;28;20052;-78
2023/09/11 00:15:49;;;;;;;9.80;5.88;;;19.10;99.90;;;;;;5063514;28;20127;-78
2023/09/11 00:18:16;;;;;;;11.18;5.60;;;19.10;99.90;;;;;;5076894;28;20055;-78
2023/09/11 00:20:44;;;;;;;9.15;5.45;;;19.10;99.90;;;;;;5068936;28;21382;-79
2023/09/11 00:23:11;;;;;;;12.00;5.85;;;19.10;99.90;;;;;;5079601;28;20217;-79
2023/09/11 00:25:38;;;;;;;10.60;5.72;;;19.10;99.90;;;;;;5081301;28;20048;-79
2023/09/11 00:28:05;;;;;;;11.50;5.78;;;19.00;99.90;;;;;;5071040;28;20101;-79
2023/09/11 00:30:34;;;;;;;9.32;5.20;;;19.00;99.90;;;;;;5066045;28;20052;-79
2023/09/11 00:33:02;;;;;;;10.55;5.70;;;19.00;99.90;;;;;;5066020;28;20125;-79
2023/09/11 00:35:29;;;;;;;9.90;5.78;;;19.00;99.90;;;;;;5086351;28;20048;-78
2023/09/11 00:37:56;;;;;;;9.07;5.78;;;19.00;99.90;;;;;;5070316;28;20502;-78
2023/09/11 00:40:23;;;;;;;9.00;5.28;;;19.00;99.90;;;;;;5090879;28;20076;-78
2023/09/11 00:42:50;;;;;;;6.85;4.68;;;19.00;99.90;;;;;;5080804;28;20411;-78
2023/09/11 00:45:18;;;;;;;10.73;6.28;;;19.00;99.90;;;;;;5085681;28;20056;-78
2023/09/11 00:47:47;;;;;;;13.90;5.97;;;18.90;99.90;;;;;;5094174;27;20089;-79
2023/09/11 00:50:18;;;;;;;12.73;5.85;;;18.80;99.90;;;;;;5099204;27;20498;-79
2023/09/11 00:52:47;;;;;;;12.10;5.57;;;18.90;99.90;;;;;;5083654;28;20058;-79
2023/09/11 00:55:14;;;;;;;10.75;6.22;;;18.90;99.90;;;;;;5082539;28;20629;-79
2023/09/11 00:57:42;;;;;;;8.52;5.30;;;18.90;99.90;;;;;;5064677;28;20122;-79
2023/09/11 01:00:10;;;;;;;9.52;5.82;;;18.80;99.90;;;;;;5081766;28;21016;-78
2023/09/11 01:02:37;;;;;;;9.32;5.85;;;18.80;99.90;;;;;;5079314;28;20101;-78
2023/09/11 01:05:08;;;;;;;11.00;6.32;;;18.80;99.90;;;;;;5064480;28;20134;-79
2023/09/11 01:07:35;;;;;;;10.40;6.22;;;18.80;99.90;;;;;;5086397;28;22882;-79
2023/09/11 01:10:06;;;;;;;9.15;5.45;;;18.70;99.90;;;;;;5076986;28;20075;-79
2023/09/11 01:12:36;;;;;;;9.20;5.57;;;18.70;99.90;;;;;;5081085;28;20146;-79
2023/09/11 01:15:04;;;;;;;12.52;6.53;;;18.70;99.90;;;;;;5083892;28;20041;-79
2023/09/11 01:17:58;;;;;;;10.60;6.25;;;18.70;99.90;;;;;;5079009;28;20098;-78
2023/09/11 01:20:49;;;;;;;13.50;5.55;;;18.70;99.90;;;;;;5075961;28;20041;-79
2023/09/11 01:23:55;;;;;;;10.95;5.57;;;18.60;99.90;;;;;;5061599;28;20060;-79
2023/09/11 01:26:40;;;;;;;9.45;5.82;;;18.60;99.90;;;;;;5079076;28;20131;-79
2023/09/11 01:29:11;;;;;;;11.65;6.50;;;18.60;99.90;;;;;;5073710;28;20828;-79
2023/09/11 01:31:42;;;;;;;8.55;4.82;;;18.60;99.90;;;;;;5074406;28;20551;-79
2023/09/11 01:34:10;;;;;;;12.63;6.37;;;18.60;99.90;;;;;;5079219;28;20056;-79
2023/09/11 01:36:37;;;;;;;9.38;6.63;;;18.50;99.90;;;;;;5060367;28;20127;-79
2023/09/11 01:39:05;;;;;;;9.70;5.90;;;18.50;99.90;;;;;;5073694;28;20440;-79
2023/09/11 01:41:35;;;;;;;11.35;6.00;;;18.50;99.90;;;;;;5075180;28;20056;-79
2023/09/11 01:44:09;;;;;;;10.75;6.18;;;18.40;99.90;;;;;;5075955;28;20045;-79
2023/09/11 01:46:36;;;;;;;10.00;5.65;;;18.40;99.90;;;;;;5080953;28;20122;-79
2023/09/11 01:49:07;;;;;;;10.18;5.93;;;18.40;99.90;;;;;;5085017;28;20066;-79
2023/09/11 01:51:37;;;;;;;10.35;5.82;;;18.40;99.90;;;;;;5080698;28;21667;-79
2023/09/11 01:54:05;;;;;;;12.98;5.93;;;18.40;99.90;;;;;;5077729;28;20028;-79
2023/09/11 01:56:33;;;;;;;10.20;6.30;;;18.40;99.90;;;;;;5067746;28;20040;-79
2023/09/11 01:59:01;;;;;;;12.10;6.80;;;18.30;99.90;;;;;;5036424;28;1176090;-79
2023/09/11 02:01:28;;;;;;;11.30;5.68;;;18.30;99.90;;;;;;5077013;28;20044;-79
2023/09/11 02:03:55;;;;;;;13.80;6.20;;;18.20;99.90;;;;;;5065543;28;20052;-79
2023/09/11 02:06:22;;;;;;;12.07;6.45;;;18.20;99.90;;;;;;5066836;28;20456;-79
2023/09/11 02:08:50;;;;;;;11.52;6.00;;;18.30;99.90;;;;;;5066630;28;20422;-78
2023/09/11 02:11:17;;;;;;;14.93;6.80;;;18.20;99.90;;;;;;5065230;28;20056;-78
2023/09/11 02:13:44;;;;;;;11.25;6.03;;;18.30;99.90;;;;;;5085913;28;20040;-78
2023/09/11 02:16:11;;;;;;;13.90;6.75;;;18.20;99.90;;;;;;5066060;28;20044;-79
2023/09/11 02:18:39;;;;;;;11.07;6.38;;;18.20;99.90;;;;;;5082332;28;20122;-79
2023/09/11 02:21:07;;;;;;;9.05;5.88;;;18.20;99.90;;;;;;5083109;28;20131;-79
2023/09/11 02:23:34;;;;;;;11.50;6.97;;;18.20;99.90;;;;;;5064840;28;20135;-79
2023/09/11 02:26:01;;;;;;;12.98;6.38;;;18.20;99.90;;;;;;5074939;28;20121;-79
2023/09/11 02:28:29;;;;;;;11.85;6.47;;;18.20;99.90;;;;;;5060810;28;20048;-79
2023/09/11 02:30:57;;;;;;;11.45;6.38;;;18.10;99.90;;;;;;5066784;28;22822;-79
2023/09/11 02:33:25;;;;;;;9.15;6.03;;;18.20;99.90;;;;;;5083991;28;20375;-79
2023/09/11 02:35:57;;;;;;;12.43;6.70;;;18.20;99.90;;;;;;5079423;28;22659;-79
2023/09/11 02:38:24;;;;;;;10.88;6.53;;;18.20;99.90;;;;;;5079536;28;20060;-79
2023/09/11 02:40:52;;;;;;;10.82;6.60;;;18.10;99.90;;;;;;5097028;27;20044;-79
2023/09/11 02:43:34;;;;;;;11.48;6.63;;;18.10;99.90;;;;;;5095346;27;20063;-79
2023/09/11 02:46:02;;;;;;;10.27;6.32;;;18.10;99.90;;;;;;5084645;28;20040;-79
2023/09/11 02:48:31;;;;;;;10.40;6.55;;;18.00;99.90;;;;;;5076496;28;20079;-78
2023/09/11 02:50:59;;;;;;;11.50;6.18;;;18.00;99.90;;;;;;5075082;28;20060;-79
2023/09/11 02:53:26;;;;;;;13.95;6.65;;;18.00;99.90;;;;;;5065843;28;22754;-79
2023/09/11 02:55:54;;;;;;;11.88;6.10;;;18.00;99.90;;;;;;5080837;28;20063;-79
2023/09/11 02:58:21;;;;;;;10.30;6.72;;;18.00;99.90;;;;;;5079185;28;22668;-79
2023/09/11 03:00:48;;;;;;;13.70;6.30;;;18.00;99.90;;;;;;5097439;28;20143;-79
2023/09/11 03:03:15;;;;;;;12.57;6.25;;;18.00;99.90;;;;;;5063901;28;20046;-79
2023/09/11 03:05:42;;;;;;;12.68;6.72;;;17.90;99.90;;;;;;5063603;28;20047;-79
2023/09/11 03:08:11;;;;;;;12.85;7.05;;;17.90;99.90;;;;;;5077383;28;20508;-79
2023/09/11 03:10:38;;;;;;;9.75;5.95;;;17.80;99.90;;;;;;5079104;28;20040;-79
2023/09/11 03:13:06;;;;;;;9.98;6.60;;;17.90;99.90;;;;;;5078196;28;20040;-79
2023/09/11 03:15:33;;;;;;;11.65;6.88;;;17.80;99.90;;;;;;5061986;28;20048;-79
2023/09/11 03:18:01;;;;;;;10.95;6.80;;;17.80;99.90;;;;;;5085103;28;20056;-79
2023/09/11 03:20:28;;;;;;;9.90;6.22;;;17.90;99.90;;;;;;5080807;28;21095;-79
2023/09/11 03:22:55;;;;;;;13.00;6.25;;;17.80;99.90;;;;;;5077191;28;20137;-79
2023/09/11 03:25:22;;;;;;;10.43;6.30;;;17.80;99.90;;;;;;5082997;28;22903;-79
2023/09/11 03:27:50;;;;;;;10.48;5.95;;;17.70;99.90;;;;;;5091215;27;20048;-79
2023/09/11 03:30:17;;;;;;;9.18;6.15;;;17.70;99.90;;;;;;5074769;28;20501;-79
2023/09/11 03:32:45;;;;;;;9.50;6.07;;;17.70;99.90;;;;;;5081106;28;20103;-79
2023/09/11 03:35:13;;;;;;;11.25;6.00;;;17.60;99.90;;;;;;5077935;28;20120;-79
2023/09/11 03:37:40;;;;;;;11.68;6.13;;;17.70;99.90;;;;;;5078542;28;20059;-79
2023/09/11 03:40:10;;;;;;;10.57;6.00;;;17.70;99.90;;;;;;5090816;28;20036;-79
2023/09/11 03:42:37;;;;;;;13.55;6.93;;;17.60;99.90;;;;;;5066188;28;20498;-79
2023/09/11 03:45:07;;;;;;;11.57;6.43;;;17.60;99.90;;;;;;5065829;28;20048;-79
2023/09/11 03:47:34;;;;;;;10.20;6.07;;;17.60;99.90;;;;;;5066468;28;20398;-79
2023/09/11 03:50:04;;;;;;;11.10;6.30;;;17.60;99.90;;;;;;5089196;28;20072;-79
2023/09/11 03:52:31;;;;;;;10.35;6.80;;;17.60;99.90;;;;;;5083851;28;20072;-79
2023/09/11 03:54:58;;;;;;;11.73;6.70;;;17.60;99.90;;;;;;5079224;28;22857;-79
2023/09/11 03:57:26;;;;;;;15.40;6.63;;;17.60;99.90;;;;;;5083239;28;20737;-79
2023/09/11 03:59:53;;;;;;;13.73;6.18;;;17.50;99.90;;;;;;5082151;28;20056;-79
2023/09/11 04:02:20;;;;;;;10.88;6.55;;;17.60;99.90;;;;;;5084397;28;20105;-79
2023/09/11 04:04:47;;;;;;;10.95;6.80;;;17.60;99.90;;;;;;5076000;28;20075;-79
2023/09/11 04:07:14;;;;;;;11.98;7.05;;;17.50;99.90;;;;;;5076757;28;20075;-79
2023/09/11 04:09:42;;;;;;;10.65;6.55;;;17.60;99.90;;;;;;5089010;28;20040;-79
2023/09/11 04:12:14;;;;;;;11.30;6.35;;;17.50;99.90;;;;;;5076761;28;20068;-79
2023/09/11 04:14:43;;;;;;;9.70;6.13;;;17.50;99.90;;;;;;5075307;28;20051;-79
2023/09/11 04:17:11;;;;;;;10.82;6.43;;;17.50;99.90;;;;;;5058129;28;20048;-79
2023/09/11 04:19:38;;;;;;;11.88;7.00;;;17.50;99.90;;;;;;5072341;28;20052;-79
2023/09/11 04:22:06;;;;;;;10.50;6.40;;;17.50;99.90;;;;;;5081808;28;22701;-79
2023/09/11 04:24:33;;;;;;;9.75;6.60;;;17.50;99.90;;;;;;5078298;28;20051;-79
2023/09/11 04:27:03;;;;;;;11.80;7.15;;;17.50;99.90;;;;;;5073827;28;20049;-79
2023/09/11 04:29:31;;;;;;;9.55;6.70;;;17.50;99.90;;;;;;5078806;28;20627;-79
2023/09/11 04:31:59;;;;;;;12.18;6.90;;;17.50;99.90;;;;;;5078748;28;20063;-79
2023/09/11 04:34:27;;;;;;;12.23;6.22;;;17.50;99.90;;;;;;5058779;28;20041;-79
2023/09/11 04:36:54;;;;;;;12.00;7.30;;;17.50;99.90;;;;;;5079910;28;20095;-79
2023/09/11 04:39:23;;;;;;;12.95;6.88;;;17.50;99.90;;;;;;5075550;28;20044;-79
2023/09/11 04:41:51;;;;;;;11.27;6.28;;;17.40;99.90;;;;;;5062794;28;20510;-79
2023/09/11 04:44:18;;;;;;;10.52;6.57;;;17.40;99.90;;;;;;5060623;28;20044;-79
2023/09/11 04:46:46;;;;;;;11.88;6.63;;;17.50;99.90;;;;;;5070556;28;20045;-79
2023/09/11 04:49:13;;;;;;;15.65;7.38;;;17.50;99.90;;;;;;5077829;28;20052;-79
2023/09/11 04:51:40;;;;;;;13.38;8.18;;;17.50;99.90;;;;;;5089381;28;20036;-79
2023/09/11 04:54:07;;;;;;;11.10;6.60;;;17.50;99.90;;;;;;5083976;28;20048;-79
2023/09/11 04:56:35;;;;;;;12.88;7.05;;;17.60;99.90;;;;;;5078349;28;20422;-79
2023/09/11 04:59:02;;;;;;;14.20;7.55;;;17.60;99.90;;;;;;5084581;28;20106;-79
2023/09/11 05:01:29;;;;;;;15.40;7.30;;;17.60;99.90;;;;;;5065878;28;20044;-79
2023/09/11 05:03:57;;;;;;;12.10;7.25;;;17.60;99.90;;;;;;5079284;28;20046;-80
2023/09/11 05:06:24;;;;;;;9.70;6.53;;;17.60;99.90;;;;;;5063528;28;20131;-81
2023/09/11 05:08:51;;;;;;;12.70;7.25;;;17.70;99.90;;;;;;5067629;28;20036;-81
2023/09/11 05:11:21;;;;;;;14.35;8.32;;;17.70;99.90;;;;;;5085825;28;20041;-81
2023/09/11 05:13:49;;;;;;;12.48;8.15;;;17.80;99.90;;;;;;5083469;28;20032;-81
2023/09/11 05:16:18;;;;;;;16.13;8.70;;;17.80;99.90;;;;;;5087219;28;20048;-81
2023/09/11 05:18:47;;;;;;;15.68;8.63;;;17.80;99.90;;;;;;5070959;28;20118;-81
2023/09/11 05:21:14;;;;;;;16.08;9.10;;;17.90;99.90;;;;;;5085809;28;20097;-80
2023/09/11 05:23:42;;;;;;;16.73;8.80;;;17.90;99.90;;;;;;5067823;28;20045;-80
2023/09/11 05:26:10;;;;;;;16.90;9.10;;;18.00;99.90;;;;;;5078140;28;22783;-80
2023/09/11 05:28:37;;;;;;;13.32;8.52;;;18.00;99.90;;;;;;5082425;28;20056;-81
2023/09/11 05:31:07;;;;;;;13.65;8.65;;;18.00;99.90;;;;;;5091430;27;20987;-81
2023/09/11 05:33:37;;;;;;;18.65;9.93;;;18.00;99.90;;;;;;5083827;28;20032;-80
2023/09/11 05:36:05;;;;;;;17.10;8.90;;;18.10;99.90;;;;;;5092964;28;20044;-80
2023/09/11 05:38:32;;;;;;;14.73;8.80;;;18.10;99.90;;;;;;5072370;28;20040;-80
2023/09/11 05:40:59;;;;;;;15.13;9.23;;;18.20;99.90;;;;;;5080059;28;21941;-80
2023/09/11 05:43:27;;;;;;;13.52;8.18;;;18.30;99.90;;;;;;5081539;28;22125;-81
2023/09/11 05:45:56;;;;;;;12.60;8.43;;;18.30;99.90;;;;;;5065707;28;20055;-80
2023/09/11 05:48:23;;;;;;;16.65;9.15;;;18.40;99.90;;;;;;5081395;28;20792;-80
2023/09/11 05:50:59;;;;;;;14.35;9.32;;;18.40;99.90;;;;;;5087860;28;20086;-80
2023/09/11 05:53:26;;;;;;;14.10;8.35;;;18.50;99.90;;;;;;5092568;27;20052;-80
2023/09/11 05:55:55;;;;;;;13.40;7.75;;;18.50;99.90;;;;;;5083574;28;20036;-80
2023/09/11 05:58:25;;;;;;;15.77;8.80;;;18.60;99.90;;;;;;5081709;28;20138;-80
2023/09/11 06:00:53;;;;;;;14.23;8.60;;;18.70;99.90;;;;;;5061917;28;20068;-80
2023/09/11 06:03:20;;;;;;;13.43;8.15;;;18.80;99.90;;;;;;5072270;28;20044;-79
2023/09/11 06:05:48;;;;;;;12.60;7.97;;;18.90;99.90;;;;;;5063892;28;20090;-79
2023/09/11 06:08:15;;;;;;;15.85;9.40;;;18.90;99.90;;;;;;5076919;28;20040;-79
2023/09/11 06:10:43;;;;;;;14.80;8.52;;;19.00;99.90;;;;;;5081580;28;22557;-80
2023/09/11 06:13:10;;;;;;;14.73;7.38;;;19.20;99.90;;;;;;5080331;28;20040;-80
2023/09/11 06:15:37;;;;;;;15.45;7.55;;;19.30;99.90;;;;;;5085451;28;22759;-80
2023/09/11 06:18:05;;;;;;;12.35;7.53;;;19.40;99.90;;;;;;5083787;28;20123;-80
2023/09/11 06:20:34;;;;;;;11.95;7.28;;;19.50;99.90;;;;;;5061698;28;20059;-80
2023/09/11 06:23:02;;;;;;;16.40;7.35;;;19.60;99.90;;;;;;5067584;28;20440;-80
2023/09/11 06:25:29;;;;;;;20.25;8.52;;;19.70;99.90;;;;;;5078575;28;20051;-79
2023/09/11 06:27:57;;;;;;;17.08;7.20;;;19.80;99.90;;;;;;5084709;28;20055;-79
2023/09/11 06:30:24;;;;;;;17.38;7.90;;;19.90;99.90;;;;;;5079248;28;20036;-80
2023/09/11 06:32:51;;;;;;;17.33;7.45;;;20.00;99.90;;;;;;5092783;28;20032;-80
2023/09/11 06:35:18;;;;;;;14.55;7.85;;;20.10;99.90;;;;;;5078715;28;20115;-80
2023/09/11 06:37:46;;;;;;;16.45;8.50;;;20.20;99.90;;;;;;5084208;28;20125;-80
2023/09/11 06:40:14;;;;;;;14.90;7.93;;;20.30;99.90;;;;;;5085947;28;20044;-80
2023/09/11 06:42:41;;;;;;;16.85;7.65;;;20.40;99.90;;;;;;5078586;28;20054;-80
2023/09/11 06:45:08;;;;;;;12.57;6.75;;;20.50;99.90;;;;;;5085860;28;20056;-79
2023/09/11 06:47:36;;;;;;;12.05;6.85;;;20.60;99.90;;;;;;5080353;28;20052;-79
2023/09/11 06:50:03;;;;;;;15.00;7.45;;;20.70;99.90;;;;;;5077423;28;20071;-79
2023/09/11 06:52:38;;;;;;;15.82;7.22;;;20.90;99.90;;;;;;5055916;28;20398;-80
2023/09/11 06:55:08;;;;;;;12.35;7.15;;;21.00;99.90;;;;;;5063970;28;22953;-80
2023/09/11 06:57:41;;;;;;;15.00;6.82;;;21.10;99.90;;;;;;5063426;28;20051;-81
2023/09/11 07:00:10;;;;;;;17.02;7.15;;;21.20;99.90;;;;;;5073076;28;20066;-80
2023/09/11 07:02:47;;;;;;;9.32;6.40;;;21.30;99.90;;;;;;5074285;28;20048;-80
2023/09/11 07:05:20;;;;;;;14.02;6.30;;;21.40;99.90;;;;;;5066479;28;20139;-81
2023/09/11 07:07:47;;;;;;;14.38;6.72;;;21.60;99.10;;;;;;5074731;28;20045;-79
2023/09/11 07:10:17;;;;;;;16.20;6.35;;;21.70;99.10;;;;;;5070603;28;20053;-80
2023/09/11 07:13:00;;;;;;;17.10;6.70;;;21.70;98.90;;;;;;5061291;28;20040;-80
2023/09/11 07:15:27;;;;;;;15.20;7.15;;;21.90;98.70;;;;;;5058776;28;20055;-80
2023/09/11 07:17:55;;;;;;;19.60;6.50;;;21.90;98.10;;;;;;5090644;27;20044;-80
2023/09/11 07:20:22;;;;;;;16.42;6.45;;;22.10;98.00;;;;;;5074168;28;20123;-80
2023/09/11 07:22:49;;;;;;;12.43;6.07;;;22.20;98.40;;;;;;5079335;28;20398;-80
2023/09/11 07:25:18;;;;;;;12.27;6.07;;;22.20;97.80;;;;;;5080041;28;22930;-80
2023/09/11 07:27:45;;;;;;;15.07;6.20;;;22.40;98.60;;;;;;5074279;28;20053;-81
2023/09/11 07:30:12;;;;;;;12.77;5.72;;;22.50;99.30;;;;;;5065391;28;20971;-79
2023/09/11 07:32:40;;;;;;;10.27;6.13;;;22.60;98.30;;;;;;5070728;28;20103;-80
2023/09/11 07:35:08;;;;;;;11.63;5.90;;;22.70;98.10;;;;;;5092253;28;20048;-79
2023/09/11 07:37:35;;;;;;;11.73;5.72;;;22.80;96.90;;;;;;5061817;28;20123;-80
2023/09/11 07:40:02;;;;;;;12.05;5.38;;;22.90;96.80;;;;;;5062776;28;20040;-79
2023/09/11 07:42:29;;;;;;;12.15;5.35;;;23.00;95.90;;;;;;5077854;28;20114;-79
2023/09/11 07:44:57;;;;;;;14.20;5.43;;;23.00;94.40;;;;;;5064174;28;20054;-79
2023/09/11 07:47:25;;;;;;;12.60;5.50;;;23.10;94.10;;;;;;5077774;28;20041;-80
2023/09/11 07:49:53;;;;;;;14.65;5.50;;;23.20;94.00;;;;;;5063042;28;20044;-79
2023/09/11 07:52:20;;;;;;;9.77;4.43;;;23.30;93.70;;;;;;5080935;28;20045;-79
2023/09/11 07:54:47;;;;;;;11.95;5.15;;;23.40;93.60;;;;;;5080343;28;20293;-79
2023/09/11 07:57:14;;;;;;;8.80;4.75;;;23.50;92.80;;;;;;5082346;28;20593;-79
2023/09/11 07:59:41;;;;;;;10.93;4.38;;;23.60;92.00;;;;;;5078167;28;20520;-78
2023/09/11 08:02:09;;;;;;;15.63;5.85;;;23.70;91.70;;;;;;5080810;28;20040;-79
2023/09/11 08:04:36;;;;;;;15.10;5.18;;;23.80;90.90;;;;;;5078054;28;20032;-79
2023/09/11 08:07:04;;;;;;;12.10;4.30;;;24.00;91.50;;;;;;5082580;28;20040;-80
2023/09/11 08:09:32;;;;;;;11.55;4.00;;;24.10;92.20;;;;;;5096222;28;20040;-80
2023/09/11 08:12:00;;;;;;;15.50;5.03;;;24.30;91.70;;;;;;5089538;28;20372;-80
2023/09/11 08:14:27;;;;;;;15.52;5.22;;;24.40;91.80;;;;;;5068836;28;20070;-81
2023/09/11 08:16:54;;;;;;;8.35;4.20;;;24.60;91.00;;;;;;5063295;28;22707;-80
2023/09/11 08:19:21;;;;;;;10.23;4.00;;;24.60;90.20;;;;;;5064769;28;20052;-80
2023/09/11 08:21:49;;;;;;;9.23;4.65;;;24.80;90.10;;;;;;5065793;28;20930;-79
2023/09/11 08:24:16;;;;;;;9.25;4.22;;;24.80;88.40;;;;;;5065601;28;20055;-78
2023/09/11 08:26:43;;;;;;;9.77;4.53;;;24.90;90.00;;;;;;5088814;28;20379;-79
2023/09/11 08:29:15;;;;;;;12.90;3.83;;;24.90;89.40;;;;;;5079465;28;20048;-80
2023/09/11 08:31:42;;;;;;;10.57;4.53;;;24.90;89.00;;;;;;5067047;28;20522;-79
2023/09/11 08:34:09;;;;;;;14.75;4.45;;;24.90;89.30;;;;;;5065440;28;20538;-79
2023/09/11 08:36:37;;;;;;;17.00;4.90;;;25.00;86.20;;;;;;5079769;28;20052;-78
2023/09/11 08:39:04;;;;;;;10.88;3.97;;;25.00;85.40;;;;;;5088011;28;20434;-78
2023/09/11 08:41:32;;;;;;;12.68;3.78;;;25.10;86.50;;;;;;5081365;28;20052;-79
2023/09/11 08:43:59;;;;;;;9.77;3.50;;;25.20;86.90;;;;;;5068542;28;20067;-79
2023/09/11 08:46:32;;;;;;;13.15;3.75;;;25.30;84.70;;;;;;5075995;28;20422;-79
2023/09/11 08:49:02;;;;;;;8.48;3.35;;;25.50;86.10;;;;;;5092008;28;20048;-81
2023/09/11 08:51:34;;;;;;;7.60;3.58;;;25.60;84.60;;;;;;5077163;28;20041;-78
2023/09/11 08:54:04;;;;;;;18.02;4.15;;;25.50;84.10;;;;;;5081245;28;20146;-80
2023/09/11 08:56:32;;;;;;;9.45;3.45;;;25.60;83.80;;;;;;5083275;28;20075;-80
2023/09/11 08:59:00;;;;;;;11.20;3.03;;;25.60;83.60;;;;;;5066182;28;20056;-78
2023/09/11 09:01:28;;;;;;;13.68;4.30;;;25.70;84.50;;;;;;5077935;28;20513;-79
2023/09/11 09:03:58;;;;;;;9.80;3.53;;;25.60;83.20;;;;;;5076336;28;20048;-79
2023/09/11 09:06:27;;;;;;;8.95;3.63;;;25.60;83.70;;;;;;5082723;28;20413;-80
2023/09/11 09:08:54;;;;;;;10.52;3.58;;;25.70;85.30;;;;;;5080656;28;20131;-79
2023/09/11 09:11:22;;;;;;;10.82;3.85;;;25.70;83.70;;;;;;5082234;28;20131;-79
2023/09/11 09:13:49;;;;;;;13.25;4.75;;;25.80;82.00;;;;;;5082595;28;20094;-78
2023/09/11 09:16:16;;;;;;;15.10;4.32;;;25.70;81.80;;;;;;5081743;28;20054;-78
2023/09/11 09:18:50;;;;;;;13.13;3.75;;;25.80;81.80;;;;;;5093146;28;20098;-79
2023/09/11 09:21:25;;;;;;;8.35;3.00;;;25.90;83.40;;;;;;5092433;28;20047;-81
2023/09/11 09:23:53;;;;;;;9.60;3.67;;;26.00;80.90;;;;;;5060466;28;20126;-79
2023/09/11 09:26:21;;;;;;;7.68;3.05;;;26.10;82.00;;;;;;5074966;28;20040;-81
2023/09/11 09:28:51;;;;;;;7.78;2.85;;;26.00;81.30;;;;;;5082389;28;20043;-81
2023/09/11 09:31:25;;;;;;;11.90;3.67;;;26.20;80.00;;;;;;5074902;28;20172;-78
2023/09/11 09:33:56;;;;;;;7.30;3.38;;;26.30;78.20;;;;;;5079111;28;20040;-79
2023/09/11 09:36:24;;;;;;;8.70;3.35;;;26.30;79.20;;;;;;5090752;27;20131;-79
2023/09/11 09:38:51;;;;;;;9.32;2.80;;;26.30;80.90;;;;;;5066590;28;20064;-78
2023/09/11 09:41:20;;;;;;;7.30;3.00;;;26.40;81.20;;;;;;5083352;28;20071;-79
2023/09/11 09:43:54;;;;;;;10.73;3.65;;;26.40;77.50;;;;;;5094346;27;20044;-80
2023/09/11 09:46:22;;;;;;;8.27;3.25;;;26.50;78.30;;;;;;5089373;28;20040;-79
2023/09/11 09:48:50;;;;;;;10.90;3.25;;;26.70;78.30;;;;;;5080573;28;20040;-79
2023/09/11 09:51:18;;;;;;;8.52;3.00;;;26.60;76.20;;;;;;5078363;28;22681;-79
2023/09/11 09:53:46;;;;;;;9.00;3.28;;;26.50;73.60;;;;;;5091442;28;20040;-79
2023/09/11 09:56:14;;;;;;;9.30;3.33;;;26.50;73.20;;;;;;5094793;28;20053;-78
2023/09/11 09:58:44;;;;;;;13.48;4.03;;;26.50;76.00;;;;;;5084464;28;21057;-79
2023/09/11 10:01:17;;;;;;;11.95;3.70;;;26.50;75.80;;;;;;5079923;28;20044;-80
2023/09/11 10:03:49;;;;;;;11.73;3.33;;;26.50;75.50;;;;;;5066710;28;20187;-79
2023/09/11 10:06:21;;;;;;;13.63;4.45;;;26.60;74.40;;;;;;5072687;28;20095;-79
2023/09/11 10:09:04;;;;;;;7.03;3.10;;;26.60;74.70;;;;;;5092122;27;22057;-80
2023/09/11 10:11:32;;;;;;;9.55;4.10;;;26.80;77.20;;;;;;5086629;28;20047;-79
2023/09/11 10:14:03;;;;;;;9.57;3.03;;;26.80;75.70;;;;;;5078029;28;20059;-80
2023/09/11 10:16:30;;;;;;;8.60;3.28;;;26.80;76.00;;;;;;5083713;28;20453;-79
2023/09/11 10:18:59;;;;;;;8.18;3.20;;;26.90;74.20;;;;;;5076866;28;21857;-78
2023/09/11 10:21:27;;;;;;;11.13;3.17;;;27.00;73.10;;;;;;5079604;28;22110;-79
2023/09/11 10:23:54;;;;;;;10.40;3.42;;;27.00;71.70;;;;;;5085121;28;20040;-80
2023/09/11 10:26:36;;;;;;;7.40;3.63;;;27.00;72.00;;;;;;5079440;28;20065;-79
2023/09/11 10:29:06;;;;;;;8.60;3.47;;;27.10;70.20;;;;;;5084763;28;20109;-79
2023/09/11 10:31:51;;;;;;;6.60;2.55;;;27.10;72.70;;;;;;5078168;28;20036;-80
2023/09/11 10:34:19;;;;;;;7.18;3.05;;;27.20;71.80;;;;;;5092975;28;20472;-80
2023/09/11 10:36:58;;;;;;;5.78;2.80;;;27.20;71.90;;;;;;5094755;27;20044;-79
2023/09/11 10:39:26;;;;;;;6.25;3.13;;;27.30;72.20;;;;;;5080491;28;20119;-81
2023/09/11 10:41:54;;;;;;;9.25;3.15;;;27.30;70.60;;;;;;5083649;28;20941;-78
2023/09/11 10:44:21;;;;;;;10.10;3.08;;;27.30;70.20;;;;;;5083273;28;20104;-80
2023/09/11 10:46:50;;;;;;;6.25;3.00;;;27.40;70.90;;;;;;5083747;28;20068;-81
2023/09/11 10:49:24;;;;;;;8.07;2.70;;;27.40;69.20;;;;;;5093390;28;20407;-80
2023/09/11 10:51:52;;;;;;;7.18;2.78;;;27.50;68.40;;;;;;5083413;28;20056;-80
2023/09/11 10:54:23;;;;;;;6.72;2.90;;;27.50;68.00;;;;;;5063393;28;20060;-80
2023/09/11 10:56:51;;;;;;;5.97;2.90;;;27.60;67.80;;;;;;5081931;28;20036;-77
2023/09/11 10:59:23;;;;;;;7.18;2.83;;;27.50;66.30;;;;;;5074492;28;20056;-79
2023/09/11 11:01:51;;;;;;;5.72;2.65;;;27.50;67.50;;;;;;5075058;28;20056;-79
2023/09/11 11:04:22;;;;;;;7.82;3.10;;;27.80;68.90;;;;;;5079255;28;20044;-78
2023/09/11 11:06:52;;;;;;;7.47;2.40;;;27.60;68.70;;;;;;5076846;28;20040;-80
2023/09/11 11:09:40;;;;;;;11.35;3.05;;;27.60;66.80;;;;;;5072836;28;20041;-79
2023/09/11 11:12:13;;;;;;;4.60;2.15;;;27.50;65.70;;;;;;5074609;28;20039;-82
2023/09/11 11:14:40;;;;;;;4.35;2.60;;;27.40;65.50;;;;;;5082423;28;20420;-80
2023/09/11 11:17:11;;;;;;;6.75;3.00;;;27.50;67.90;;;;;;5077303;28;20067;-79
2023/09/11 11:19:59;;;;;;;5.50;3.25;;;27.60;67.00;;;;;;5075570;28;20053;-81
2023/09/11 11:22:31;;;;;;;9.40;3.53;;;27.60;66.80;;;;;;5078577;28;20119;-81
2023/09/11 11:25:00;;;;;;;6.28;3.20;;;27.60;68.50;;;;;;5078260;28;20048;-80
2023/09/11 11:27:27;;;;;;;6.82;2.70;;;27.80;68.10;;;;;;5077826;28;20052;-79
2023/09/11 11:29:56;;;;;;;7.43;3.20;;;27.80;66.90;;;;;;5064097;28;20053;-81
2023/09/11 11:32:25;;;;;;;7.45;3.00;;;27.80;66.70;;;;;;5065614;28;20037;-79
2023/09/11 11:34:55;;;;;;;10.85;3.47;;;27.80;66.90;;;;;;5076010;28;20040;-79
2023/09/11 11:37:24;;;;;;;6.32;3.00;;;27.60;65.90;;;;;;5077059;28;20044;-79
2023/09/11 11:39:52;;;;;;;5.25;3.00;;;27.70;66.20;;;;;;5067089;28;20127;-79
2023/09/11 11:42:20;;;;;;;4.18;3.08;;;27.60;64.90;;;;;;5067896;28;20139;-80
2023/09/11 11:44:48;;;;;;;6.78;2.88;;;27.60;66.20;;;;;;5063249;28;20132;-80
2023/09/11 11:47:15;;;;;;;3.90;2.75;;;27.70;64.60;;;;;;5075795;28;20049;-79
2023/09/11 11:49:43;;;;;;;5.50;3.03;;;27.80;65.10;;;;;;5061874;28;20098;-82
2023/09/11 11:52:11;;;;;;;7.18;2.70;;;27.90;65.80;;;;;;5075641;28;20977;-81
2023/09/11 11:54:38;;;;;;;8.70;2.90;;;27.90;66.20;;;;;;5067364;28;20044;-81
2023/09/11 11:57:05;;;;;;;5.28;3.40;;;27.90;65.20;;;;;;5080671;28;20033;-78
2023/09/11 11:59:40;;;;;;;5.88;2.78;;;27.90;67.10;;;;;;5080690;28;20056;-79
2023/09/11 12:02:24;;;;;;;5.75;2.90;;;28.00;65.90;;;;;;5063559;28;20067;-78
2023/09/11 12:04:55;;;;;;;9.65;2.80;;;28.00;63.30;;;;;;5088034;28;20050;-79
2023/09/11 12:07:23;;;;;;;6.70;3.20;;;27.90;64.00;;;;;;5063534;28;20067;-79
2023/09/11 12:09:50;;;;;;;7.03;2.88;;;27.90;65.50;;;;;;5092679;27;20047;-79
2023/09/11 12:12:17;;;;;;;3.63;2.47;;;28.00;67.30;;;;;;5064780;28;20044;-78
2023/09/11 12:14:45;;;;;;;4.57;2.53;;;28.00;65.60;;;;;;5080260;28;20418;-79
2023/09/11 12:17:13;;;;;;;8.93;2.85;;;28.00;64.50;;;;;;5080114;28;20421;-78
2023/09/11 12:19:41;;;;;;;6.28;3.15;;;28.10;63.60;;;;;;5082052;28;20148;-80
2023/09/11 12:22:09;;;;;;;5.68;2.88;;;28.10;65.40;;;;;;5081281;28;20057;-80
2023/09/11 12:24:36;;;;;;;7.13;2.53;;;28.20;65.80;;;;;;5082743;28;20945;-80
2023/09/11 12:27:07;;;;;;;5.95;2.60;;;28.10;64.50;;;;;;5068746;28;20091;-80
2023/09/11 12:29:35;;;;;;;6.50;2.80;;;28.10;65.00;;;;;;5080558;28;21921;-79
2023/09/11 12:32:02;;;;;;;8.73;2.50;;;28.20;64.60;;;;;;5085608;28;20074;-80
2023/09/11 12:34:50;;;;;;;7.13;2.67;;;28.10;64.00;;;;;;5071467;28;20072;-80
2023/09/11 12:37:17;;;;;;;6.65;2.92;;;28.10;63.30;;;;;;5066975;28;20048;-79
2023/09/11 12:39:44;;;;;;;7.30;2.63;;;28.10;62.70;;;;;;5079769;28;20076;-79
2023/09/11 12:42:13;;;;;;;12.55;3.20;;;28.10;64.30;;;;;;5081469;28;20063;-79
2023/09/11 12:44:41;;;;;;;9.25;3.20;;;28.20;66.00;;;;;;5096363;27;20048;-81
2023/09/11 12:47:08;;;;;;;7.20;2.80;;;28.30;65.30;;;;;;5060907;28;20083;-79
2023/09/11 12:49:36;;;;;;;5.70;2.67;;;28.30;64.90;;;;;;5084587;28;20143;-79